Time;durP1;ratioP1;P1;durP2;ratioP2;P2;SDS_P1;SDS_P2;PMS_P1;PMS_P2;Temp;Humidity;BMP_temperature;BMP_pressure;BME280_temperature;BME280_humidity;BME280_pressure;Samples;Min_cycle;Max_cycle;Signal;HPM_P1;HPM_P2
2022/03/12 00:00:07;;;;;;;10.85;7.25;;;12.40;77.00;;;;;;5025573;28;20202;-89
2022/03/12 00:02:34;;;;;;;12.25;8.55;;;12.70;77.00;;;;;;5020061;28;20178;-90
2022/03/12 00:05:00;;;;;;;11.07;7.15;;;12.70;76.40;;;;;;4999730;28;20206;-90
2022/03/12 00:07:30;;;;;;;10.65;6.95;;;12.60;76.20;;;;;;5029583;28;20674;-89
2022/03/12 00:09:57;;;;;;;12.25;7.38;;;12.50;76.50;;;;;;5020075;28;20182;-90
2022/03/12 00:12:24;;;;;;;10.93;6.47;;;12.40;76.50;;;;;;5029694;28;20178;-90
2022/03/12 00:14:50;;;;;;;11.52;7.63;;;12.20;76.80;;;;;;5043227;28;20225;-89
2022/03/12 00:17:17;;;;;;;9.33;6.33;;;12.20;77.00;;;;;;5039348;28;20185;-90
2022/03/12 00:19:43;;;;;;;9.25;7.15;;;12.20;76.90;;;;;;5040339;28;20470;-90
2022/03/12 00:22:10;;;;;;;12.85;6.68;;;12.20;76.60;;;;;;5030254;28;20225;-90
2022/03/12 00:24:41;;;;;;;8.65;5.70;;;12.20;76.60;;;;;;5051229;28;20220;-90
2022/03/12 00:27:09;;;;;;;9.20;7.07;;;12.30;76.60;;;;;;5038540;28;20166;-90
2022/03/12 00:29:35;;;;;;;12.13;7.13;;;12.40;76.10;;;;;;5044259;28;20166;-90
2022/03/12 00:32:05;;;;;;;15.98;6.40;;;12.50;76.00;;;;;;5032958;28;20225;-88
2022/03/12 00:34:31;;;;;;;9.30;6.22;;;12.50;75.40;;;;;;5026875;28;20202;-89
2022/03/12 00:36:57;;;;;;;8.60;5.45;;;12.50;75.40;;;;;;5022477;28;20179;-89
2022/03/12 00:39:23;;;;;;;10.03;5.77;;;12.40;75.10;;;;;;5038731;28;20213;-91
2022/03/12 00:41:48;;;;;;;8.87;5.53;;;12.30;75.20;;;;;;5041930;28;20666;-90
2022/03/12 00:44:19;;;;;;;9.37;6.43;;;12.30;75.40;;;;;;5038709;28;20527;-90
2022/03/12 00:46:46;;;;;;;7.70;5.78;;;12.30;75.30;;;;;;5021101;28;20162;-90
2022/03/12 00:49:11;;;;;;;12.30;6.38;;;12.30;75.10;;;;;;5020718;28;20205;-90
2022/03/12 00:51:41;;;;;;;6.47;4.77;;;12.20;75.20;;;;;;5039041;28;20193;-90
2022/03/12 00:54:07;;;;;;;9.63;5.93;;;12.10;75.40;;;;;;5030685;28;20272;-90
2022/03/12 00:56:32;;;;;;;7.80;5.43;;;12.10;75.50;;;;;;5038364;28;20728;-90
2022/03/12 00:58:58;;;;;;;7.53;4.93;;;12.20;75.40;;;;;;5054845;28;20212;-90
2022/03/12 01:01:26;;;;;;;11.32;6.00;;;12.10;75.40;;;;;;5036444;28;20171;-90
2022/03/12 01:03:52;;;;;;;11.45;5.65;;;12.00;75.20;;;;;;5028189;28;20178;-90
2022/03/12 01:06:18;;;;;;;11.20;5.90;;;12.00;75.30;;;;;;5053225;28;20182;-90
2022/03/12 01:08:44;;;;;;;8.60;5.25;;;12.10;75.30;;;;;;5021144;28;20214;-90
2022/03/12 01:11:11;;;;;;;10.02;6.00;;;12.10;75.30;;;;;;5029802;28;20188;-90
2022/03/12 01:13:38;;;;;;;7.25;6.35;;;12.10;75.20;;;;;;5038223;28;20197;-90
2022/03/12 01:16:05;;;;;;;8.50;5.07;;;12.10;75.20;;;;;;5043816;28;20202;-90
2022/03/12 01:18:31;;;;;;;7.78;6.32;;;12.10;75.00;;;;;;5032171;28;20231;-89
2022/03/12 01:21:07;;;;;;;8.15;5.65;;;12.00;75.20;;;;;;5019947;28;20185;-90
2022/03/12 01:23:33;;;;;;;10.40;5.57;;;12.00;75.30;;;;;;5018838;28;20639;-90
2022/03/12 01:25:59;;;;;;;7.07;5.73;;;11.90;75.20;;;;;;5034567;28;20209;-89
2022/03/12 01:28:25;;;;;;;8.27;5.87;;;11.90;75.50;;;;;;5036705;28;20247;-90
2022/03/12 01:30:50;;;;;;;8.60;5.33;;;11.80;75.30;;;;;;5021272;28;20201;-90
2022/03/12 01:33:17;;;;;;;11.20;5.43;;;11.80;75.30;;;;;;5024927;28;20449;-89
2022/03/12 01:35:43;;;;;;;5.90;4.40;;;11.70;75.30;;;;;;5031275;28;20201;-88
2022/03/12 01:38:09;;;;;;;5.70;4.33;;;11.70;75.40;;;;;;5026689;28;20398;-88
2022/03/12 01:40:41;;;;;;;5.33;4.20;;;11.70;75.60;;;;;;5020349;28;20551;-88
2022/03/12 01:43:06;;;;;;;7.50;5.25;;;11.60;75.40;;;;;;5018191;28;20175;-88
2022/03/12 01:45:34;;;;;;;7.10;4.80;;;11.60;76.30;;;;;;5038651;28;20194;-89
2022/03/12 01:48:02;;;;;;;11.35;5.03;;;11.60;75.50;;;;;;5036626;28;20416;-89
2022/03/12 01:50:33;;;;;;;4.70;4.00;;;11.60;75.40;;;;;;5020026;28;20601;-88
2022/03/12 01:53:02;;;;;;;6.50;4.95;;;11.50;75.30;;;;;;5038274;28;20170;-89
2022/03/12 01:55:32;;;;;;;4.80;4.00;;;11.50;75.40;;;;;;5038991;28;20186;-87
2022/03/12 01:58:03;;;;;;;6.50;5.00;;;11.60;75.30;;;;;;5050568;28;20214;-88
2022/03/12 02:00:45;;;;;;;5.40;4.22;;;11.70;75.30;;;;;;5043346;28;20181;-87
2022/03/12 02:03:12;;;;;;;6.30;5.05;;;11.70;75.10;;;;;;5041888;28;20163;-87
2022/03/12 02:05:38;;;;;;;6.00;3.65;;;11.60;74.80;;;;;;5051073;28;20189;-88
2022/03/12 02:08:05;;;;;;;6.20;4.30;;;11.60;74.80;;;;;;5035570;28;20199;-87
2022/03/12 02:10:31;;;;;;;4.47;3.28;;;11.70;74.60;;;;;;5035039;28;20280;-87
2022/03/12 02:13:39;;;;;;;4.50;3.30;;;11.70;74.50;;;;;;5018838;28;20186;-89
2022/03/12 02:16:09;;;;;;;4.00;3.38;;;11.70;74.30;;;;;;5018436;28;20209;-88
2022/03/12 02:18:36;;;;;;;3.40;3.10;;;11.50;74.60;;;;;;5020329;28;20198;-87
2022/03/12 02:21:03;;;;;;;5.05;3.38;;;11.50;74.80;;;;;;5018419;28;20329;-89
2022/03/12 02:23:29;;;;;;;5.25;3.55;;;11.50;74.90;;;;;;5017732;28;20177;-89
2022/03/12 02:26:02;;;;;;;4.57;4.10;;;11.50;74.70;;;;;;5028207;28;20198;-88
2022/03/12 02:28:27;;;;;;;3.58;3.13;;;11.60;74.50;;;;;;5037637;28;20232;-88
2022/03/12 02:30:55;;;;;;;5.73;3.43;;;11.50;74.50;;;;;;5027843;28;20651;-88
2022/03/12 02:33:27;;;;;;;4.07;3.63;;;11.50;74.50;;;;;;5023219;28;20316;-88
2022/03/12 02:35:53;;;;;;;6.63;2.90;;;11.50;74.40;;;;;;5029416;28;20262;-89
2022/03/12 02:38:21;;;;;;;6.07;3.72;;;11.50;74.50;;;;;;5042090;28;20201;-89
2022/03/12 02:40:51;;;;;;;3.95;2.70;;;11.40;74.50;;;;;;5044786;28;20178;-88
2022/03/12 02:43:26;;;;;;;3.42;2.80;;;11.50;74.60;;;;;;5030571;28;20181;-89
2022/03/12 02:46:01;;;;;;;3.05;2.80;;;11.50;74.60;;;;;;5036527;28;20208;-89
2022/03/12 02:48:27;;;;;;;3.20;2.55;;;11.50;74.40;;;;;;5031456;28;20192;-89
2022/03/12 02:50:53;;;;;;;3.80;2.90;;;11.50;74.20;;;;;;5037220;28;20178;-90
2022/03/12 02:53:19;;;;;;;3.80;3.10;;;11.50;74.20;;;;;;5049671;28;20433;-90
2022/03/12 02:55:45;;;;;;;4.35;3.53;;;11.50;74.20;;;;;;5028445;28;20226;-89
2022/03/12 02:58:21;;;;;;;4.40;3.03;;;11.40;74.20;;;;;;5017292;28;20203;-88
2022/03/12 03:00:47;;;;;;;3.90;2.85;;;11.50;74.30;;;;;;5018590;28;20389;-88
2022/03/12 03:03:13;;;;;;;4.60;3.27;;;11.50;74.10;;;;;;5017834;28;20183;-88
2022/03/12 03:05:47;;;;;;;2.93;2.40;;;11.50;74.20;;;;;;5030143;28;20198;-87
2022/03/12 03:08:21;;;;;;;6.15;3.00;;;11.80;74.20;;;;;;5021123;28;20651;-88
2022/03/12 03:10:52;;;;;;;5.32;3.50;;;11.70;73.70;;;;;;5005671;28;20269;-88
2022/03/12 03:13:18;;;;;;;6.43;3.38;;;11.60;73.60;;;;;;5023054;28;20171;-88
2022/03/12 03:16:00;;;;;;;5.03;3.17;;;11.50;74.00;;;;;;5015770;28;20199;-88
2022/03/12 03:18:29;;;;;;;6.03;3.53;;;11.30;75.90;;;;;;5017720;28;20194;-87
2022/03/12 03:20:57;;;;;;;4.18;3.15;;;11.20;77.10;;;;;;5020694;28;20245;-87
2022/03/12 03:23:25;;;;;;;4.32;3.53;;;11.40;77.90;;;;;;5017022;28;20167;-89
2022/03/12 03:25:51;;;;;;;6.57;3.72;;;11.30;77.70;;;;;;5015977;28;20202;-89
2022/03/12 03:28:17;;;;;;;6.28;3.25;;;11.10;77.40;;;;;;5014955;28;20186;-89
2022/03/12 03:30:43;;;;;;;6.63;4.50;;;11.10;77.80;;;;;;5015488;28;20190;-89
2022/03/12 03:33:12;;;;;;;6.40;3.15;;;11.30;78.40;;;;;;5016454;28;20326;-90
2022/03/12 03:35:53;;;;;;;4.35;3.08;;;11.30;77.20;;;;;;5015184;28;20209;-90
2022/03/12 03:38:20;;;;;;;5.07;3.80;;;11.20;76.90;;;;;;5023619;28;20197;-90
2022/03/12 03:40:46;;;;;;;5.05;3.33;;;11.10;76.80;;;;;;5025850;28;20206;-89
2022/03/12 03:43:14;;;;;;;4.35;2.85;;;11.10;76.80;;;;;;5027663;28;20173;-89
2022/03/12 03:45:43;;;;;;;4.97;3.63;;;11.10;76.90;;;;;;5017901;28;20206;-88
2022/03/12 03:48:21;;;;;;;5.05;3.72;;;11.30;76.90;;;;;;5016898;28;20233;-88
2022/03/12 03:50:49;;;;;;;6.93;3.38;;;11.20;76.60;;;;;;5022569;28;20183;-88
2022/03/12 03:53:17;;;;;;;4.10;3.60;;;11.20;76.80;;;;;;5040551;28;20182;-89
2022/03/12 03:55:43;;;;;;;5.20;3.45;;;11.20;76.60;;;;;;5022594;28;20247;-89
2022/03/12 03:58:39;;;;;;;7.55;4.32;;;11.30;76.70;;;;;;5025412;28;20218;-89
2022/03/12 04:01:17;;;;;;;8.57;4.45;;;11.30;76.50;;;;;;5033356;28;20174;-89
2022/03/12 04:03:51;;;;;;;4.82;3.80;;;11.30;76.40;;;;;;5021850;28;20162;-89
2022/03/12 04:06:22;;;;;;;6.60;4.63;;;11.10;76.40;;;;;;5016665;28;20166;-89
2022/03/12 04:08:49;;;;;;;4.28;3.78;;;11.30;76.50;;;;;;5039945;28;20170;-88
2022/03/12 04:11:17;;;;;;;7.38;4.30;;;11.30;76.30;;;;;;5041266;28;20182;-87
2022/03/12 04:13:45;;;;;;;6.63;4.82;;;11.40;76.10;;;;;;5039538;28;20205;-89
2022/03/12 04:16:12;;;;;;;7.95;4.45;;;11.50;75.90;;;;;;5041749;28;20205;-88
2022/03/12 04:18:39;;;;;;;4.82;3.92;;;11.70;75.60;;;;;;5042855;28;20206;-88
2022/03/12 04:21:06;;;;;;;6.55;3.50;;;11.90;75.20;;;;;;5016951;28;20727;-88
2022/03/12 04:23:32;;;;;;;6.93;4.13;;;12.10;74.80;;;;;;5016337;28;20617;-88
2022/03/12 04:25:58;;;;;;;4.78;4.20;;;12.10;74.30;;;;;;5020390;28;20190;-88
2022/03/12 04:28:32;;;;;;;4.60;3.85;;;12.00;73.60;;;;;;5023400;28;20277;-88
2022/03/12 04:30:59;;;;;;;4.43;3.60;;;11.90;73.90;;;;;;5014647;28;20190;-88
2022/03/12 04:33:25;;;;;;;4.63;3.85;;;11.70;73.70;;;;;;5028922;28;20184;-89
2022/03/12 04:35:51;;;;;;;6.45;4.50;;;11.50;74.20;;;;;;5036306;28;20600;-88
2022/03/12 04:38:17;;;;;;;7.07;4.07;;;11.40;74.60;;;;;;5048387;28;20215;-89
2022/03/12 04:40:44;;;;;;;4.82;3.78;;;11.30;75.00;;;;;;5051743;28;20511;-89
2022/03/12 04:43:12;;;;;;;5.93;3.90;;;11.20;75.30;;;;;;5034222;28;20186;-89
2022/03/12 04:45:42;;;;;;;8.27;4.22;;;11.20;75.60;;;;;;5050366;28;20193;-89
2022/03/12 04:48:10;;;;;;;7.90;4.00;;;11.10;76.00;;;;;;5048325;28;20217;-89
2022/03/12 04:50:38;;;;;;;6.43;3.95;;;11.10;76.20;;;;;;5031747;28;20218;-89
2022/03/12 04:53:04;;;;;;;3.80;3.40;;;11.00;76.40;;;;;;5033311;28;20750;-89
2022/03/12 04:55:31;;;;;;;4.57;3.75;;;11.20;76.40;;;;;;5027186;28;20194;-89
2022/03/12 04:57:57;;;;;;;7.65;4.60;;;11.10;76.30;;;;;;5050862;28;20170;-89
2022/03/12 05:00:25;;;;;;;8.25;3.90;;;11.00;76.40;;;;;;5030908;28;20724;-88
2022/03/12 05:03:01;;;;;;;4.50;3.63;;;11.00;76.50;;;;;;5013921;28;20617;-89
2022/03/12 05:05:26;;;;;;;6.70;3.55;;;11.10;76.50;;;;;;5014583;28;20197;-89
2022/03/12 05:07:52;;;;;;;6.63;4.40;;;11.10;76.40;;;;;;5029331;28;20182;-90
2022/03/12 05:10:18;;;;;;;7.50;3.77;;;11.10;76.10;;;;;;5019402;28;20430;-89
2022/03/12 05:12:50;;;;;;;5.93;3.92;;;11.10;76.20;;;;;;5015901;28;20183;-89
2022/03/12 05:15:18;;;;;;;5.53;3.47;;;11.20;75.80;;;;;;5043513;28;20646;-88
2022/03/12 05:17:48;;;;;;;8.20;4.65;;;11.30;75.80;;;;;;5043633;28;20183;-87
2022/03/12 05:20:24;;;;;;;4.50;3.83;;;11.20;75.50;;;;;;5021191;28;20225;-88
2022/03/12 05:22:50;;;;;;;5.50;3.72;;;11.10;75.50;;;;;;4998882;28;20198;-88
2022/03/12 05:25:18;;;;;;;10.27;4.40;;;11.20;75.40;;;;;;4997699;28;20199;-88
2022/03/12 05:27:52;;;;;;;8.30;4.25;;;11.30;75.40;;;;;;4997868;28;20175;-89
2022/03/12 05:30:18;;;;;;;4.90;2.95;;;11.10;75.10;;;;;;5006471;28;20595;-89
2022/03/12 05:32:44;;;;;;;5.78;3.70;;;11.00;75.30;;;;;;5038506;28;20588;-89
2022/03/12 05:35:10;;;;;;;6.07;3.47;;;11.00;75.50;;;;;;5029596;28;20210;-89
2022/03/12 05:37:36;;;;;;;4.10;3.10;;;11.00;75.50;;;;;;5024089;28;20193;-89
2022/03/12 05:40:04;;;;;;;10.60;3.67;;;10.90;75.70;;;;;;5036558;28;20452;-89
2022/03/12 05:42:31;;;;;;;9.35;4.30;;;11.10;75.50;;;;;;5031967;28;20194;-89
2022/03/12 05:44:57;;;;;;;4.85;3.38;;;11.00;75.30;;;;;;5030348;28;20280;-88
2022/03/12 05:47:25;;;;;;;5.27;3.20;;;11.10;75.50;;;;;;5036920;28;20249;-88
2022/03/12 05:49:50;;;;;;;4.18;3.50;;;11.10;75.20;;;;;;5037254;28;20178;-87
2022/03/12 05:52:18;;;;;;;6.90;4.27;;;11.20;75.00;;;;;;5039227;28;20178;-88
2022/03/12 05:54:49;;;;;;;4.30;3.67;;;11.20;74.80;;;;;;5038229;28;20209;-88
2022/03/12 05:57:14;;;;;;;8.18;3.60;;;11.10;75.00;;;;;;5054527;28;20182;-88
2022/03/12 05:59:40;;;;;;;9.77;3.60;;;11.20;74.80;;;;;;5038174;28;20197;-88
2022/03/12 06:02:06;;;;;;;5.90;4.00;;;11.00;74.80;;;;;;5022240;28;20422;-88
2022/03/12 06:04:33;;;;;;;5.93;3.93;;;11.10;75.10;;;;;;5020284;28;20961;-88
2022/03/12 06:07:00;;;;;;;6.10;4.05;;;11.30;75.10;;;;;;5018639;28;20475;-88
2022/03/12 06:09:26;;;;;;;9.23;3.85;;;11.10;74.80;;;;;;5017280;28;20198;-89
2022/03/12 06:11:59;;;;;;;17.00;4.83;;;11.20;75.10;;;;;;5000897;28;20190;-87
2022/03/12 06:14:24;;;;;;;7.07;3.83;;;11.10;75.10;;;;;;5020130;28;20713;-88
2022/03/12 06:16:50;;;;;;;6.57;4.10;;;11.10;75.20;;;;;;5031078;28;20245;-88
2022/03/12 06:19:21;;;;;;;6.07;3.33;;;10.90;75.40;;;;;;5038340;28;20984;-88
2022/03/12 06:21:48;;;;;;;4.22;3.83;;;10.90;75.70;;;;;;5037278;28;20483;-90
2022/03/12 06:24:14;;;;;;;5.85;4.20;;;10.90;75.80;;;;;;5041146;28;20194;-88
2022/03/12 06:26:43;;;;;;;6.57;5.00;;;11.00;75.90;;;;;;5029734;28;20190;-89
2022/03/12 06:29:13;;;;;;;11.65;4.57;;;10.90;75.60;;;;;;5016647;28;20670;-89
2022/03/12 06:31:42;;;;;;;5.50;4.35;;;11.00;75.70;;;;;;5040705;28;20174;-89
2022/03/12 06:34:10;;;;;;;11.00;4.15;;;10.90;75.70;;;;;;5027648;28;20185;-89
2022/03/12 06:36:40;;;;;;;9.65;5.10;;;10.90;75.70;;;;;;5035994;28;20268;-89
2022/03/12 06:39:15;;;;;;;4.60;3.50;;;10.80;75.80;;;;;;5027627;28;20194;-90
2022/03/12 06:41:45;;;;;;;5.65;3.72;;;10.70;76.10;;;;;;5035543;28;20296;-90
2022/03/12 06:44:32;;;;;;;7.07;4.32;;;10.70;76.20;;;;;;5032837;28;20322;-90
2022/03/12 06:46:59;;;;;;;5.78;4.43;;;10.70;76.30;;;;;;5028979;28;20167;-90
2022/03/12 06:49:26;;;;;;;6.55;3.42;;;10.70;76.40;;;;;;5039599;28;20685;-91
2022/03/12 06:51:52;;;;;;;10.93;3.55;;;10.60;76.20;;;;;;5035946;28;20190;-92
2022/03/12 06:54:18;;;;;;;4.82;3.75;;;10.60;76.00;;;;;;5036798;28;20198;-91
2022/03/12 06:56:45;;;;;;;7.33;3.63;;;10.70;76.10;;;;;;5032071;28;20182;-91
2022/03/12 06:59:12;;;;;;;5.32;3.72;;;10.80;75.80;;;;;;5024585;28;20461;-90
2022/03/12 07:01:38;;;;;;;4.65;3.22;;;10.80;75.40;;;;;;5016695;28;20182;-89
2022/03/12 07:04:05;;;;;;;6.70;3.90;;;10.90;75.30;;;;;;5023315;28;20277;-90
2022/03/12 07:06:33;;;;;;;5.38;2.95;;;10.90;75.00;;;;;;5035575;28;20182;-90
2022/03/12 07:08:59;;;;;;;6.20;3.92;;;10.90;75.10;;;;;;5032924;28;20692;-89
2022/03/12 07:11:26;;;;;;;5.60;3.63;;;10.90;74.80;;;;;;5018647;28;20201;-89
2022/03/12 07:13:51;;;;;;;8.32;3.63;;;11.10;74.60;;;;;;5045187;28;20184;-89
2022/03/12 07:16:17;;;;;;;4.30;3.43;;;11.00;74.40;;;;;;5022690;28;20217;-88
2022/03/12 07:18:43;;;;;;;9.47;3.67;;;11.00;74.40;;;;;;5023776;28;20199;-88
2022/03/12 07:21:09;;;;;;;3.87;3.07;;;11.00;74.40;;;;;;5025885;28;20502;-88
2022/03/12 07:23:35;;;;;;;5.07;3.60;;;11.00;74.20;;;;;;5025709;28;20398;-88
2022/03/12 07:26:01;;;;;;;7.75;3.30;;;11.00;75.10;;;;;;5025900;28;20778;-88
2022/03/12 07:28:27;;;;;;;4.80;3.20;;;10.90;73.90;;;;;;5029294;28;20179;-89
2022/03/12 07:30:54;;;;;;;18.70;3.80;;;11.00;73.80;;;;;;5025352;28;20445;-89
2022/03/12 07:33:20;;;;;;;5.45;3.03;;;11.10;73.80;;;;;;5027598;28;20186;-90
2022/03/12 07:35:46;;;;;;;5.38;3.30;;;11.20;73.20;;;;;;5030087;28;20204;-91
2022/03/12 07:38:12;;;;;;;5.60;3.13;;;11.20;73.10;;;;;;5033209;28;20186;-89
2022/03/12 07:40:40;;;;;;;7.38;3.53;;;11.20;73.20;;;;;;5029137;28;20198;-89
2022/03/12 07:43:06;;;;;;;7.40;3.50;;;11.40;73.30;;;;;;5028059;28;20171;-88
2022/03/12 07:45:32;;;;;;;8.52;3.80;;;11.30;72.70;;;;;;5050880;28;20198;-89
2022/03/12 07:47:58;;;;;;;5.50;3.40;;;11.20;72.70;;;;;;5046408;28;20207;-88
2022/03/12 07:50:26;;;;;;;7.22;3.42;;;11.30;72.90;;;;;;5039608;28;20796;-88
2022/03/12 07:52:52;;;;;;;4.00;3.60;;;11.20;72.70;;;;;;5037766;28;20636;-89
2022/03/12 07:55:18;;;;;;;7.03;3.35;;;11.40;72.80;;;;;;5039694;28;20189;-90
2022/03/12 07:57:44;;;;;;;4.32;3.13;;;11.40;72.50;;;;;;5056514;28;20185;-88
2022/03/12 08:00:13;;;;;;;5.27;3.70;;;11.40;72.00;;;;;;5030164;28;20201;-89
2022/03/12 08:02:39;;;;;;;2.83;2.40;;;11.70;72.30;;;;;;5038180;28;20428;-87
2022/03/12 08:05:05;;;;;;;5.18;3.38;;;11.80;71.20;;;;;;5023039;28;20203;-87
2022/03/12 08:07:32;;;;;;;5.63;3.05;;;12.20;71.10;;;;;;5029897;28;20184;-87
2022/03/12 08:10:02;;;;;;;5.10;2.55;;;12.10;69.80;;;;;;5022788;28;20192;-89
2022/03/12 08:12:35;;;;;;;3.17;2.42;;;12.00;69.50;;;;;;5045400;28;20177;-88
2022/03/12 08:15:05;;;;;;;5.53;2.85;;;11.90;69.50;;;;;;5043563;28;20201;-87
2022/03/12 08:17:31;;;;;;;10.23;3.10;;;12.10;69.80;;;;;;5032270;28;20213;-88
2022/03/12 08:19:57;;;;;;;7.30;3.08;;;12.40;69.00;;;;;;5021152;28;20210;-90
2022/03/12 08:22:22;;;;;;;6.00;3.53;;;12.70;68.30;;;;;;5018690;28;20190;-91
2022/03/12 08:24:49;;;;;;;12.83;3.17;;;12.90;67.50;;;;;;5021563;28;20547;-92
2022/03/12 08:27:15;;;;;;;9.48;3.03;;;12.80;66.70;;;;;;5025526;28;20171;-91
2022/03/12 08:29:44;;;;;;;10.50;2.88;;;12.80;67.10;;;;;;5016805;28;20197;-91
2022/03/12 08:32:12;;;;;;;7.70;2.90;;;13.20;66.60;;;;;;5018984;28;20266;-92
2022/03/12 08:34:38;;;;;;;5.60;3.08;;;13.10;65.60;;;;;;5019137;28;20202;-92
2022/03/12 08:37:04;;;;;;;5.45;2.63;;;13.40;65.40;;;;;;5019529;28;20185;-91
2022/03/12 08:39:31;;;;;;;6.10;2.50;;;13.70;64.40;;;;;;5021993;28;20309;-89
2022/03/12 08:41:57;;;;;;;7.65;2.97;;;13.40;63.70;;;;;;5019440;28;20309;-89
2022/03/12 08:44:23;;;;;;;10.82;2.42;;;13.30;63.80;;;;;;5020687;28;20207;-90
2022/03/12 08:46:49;;;;;;;6.25;2.67;;;13.00;64.40;;;;;;5020670;28;20260;-89
2022/03/12 08:49:16;;;;;;;9.85;2.65;;;13.00;64.50;;;;;;5022886;28;20190;-90
2022/03/12 08:51:42;;;;;;;8.20;4.15;;;13.20;64.20;;;;;;5024042;28;20187;-89
2022/03/12 08:54:09;;;;;;;7.38;2.67;;;13.20;64.30;;;;;;5019426;28;20193;-89
2022/03/12 08:56:35;;;;;;;6.13;2.40;;;13.50;64.20;;;;;;5020094;28;20183;-90
2022/03/12 08:59:02;;;;;;;5.20;2.47;;;13.70;63.50;;;;;;5020584;28;20206;-91
2022/03/12 09:01:29;;;;;;;28.90;3.20;;;13.20;63.30;;;;;;5019907;28;20221;-89
2022/03/12 09:03:55;;;;;;;22.38;3.40;;;13.40;68.70;;;;;;5036712;28;20182;-90
2022/03/12 09:06:23;;;;;;;16.17;3.97;;;13.70;71.50;;;;;;5035017;28;20175;-90
2022/03/12 09:08:49;;;;;;;8.25;2.50;;;14.10;69.60;;;;;;5019750;28;20191;-90
2022/03/12 09:11:17;;;;;;;8.83;2.80;;;14.40;67.50;;;;;;5024788;28;20182;-89
2022/03/12 09:13:43;;;;;;;4.25;2.80;;;14.60;65.90;;;;;;5043243;28;20227;-86
2022/03/12 09:16:09;;;;;;;8.38;3.53;;;14.70;63.30;;;;;;5033492;28;20297;-88
2022/03/12 09:18:35;;;;;;;6.50;2.45;;;14.80;61.60;;;;;;5016286;28;20210;-89
2022/03/12 09:21:00;;;;;;;3.10;2.07;;;14.60;60.40;;;;;;5032946;28;20256;-86
2022/03/12 09:23:26;;;;;;;8.30;2.93;;;14.70;60.50;;;;;;5016791;28;20948;-86
2022/03/12 09:25:52;;;;;;;4.10;2.03;;;14.70;60.50;;;;;;5033652;28;20202;-86
2022/03/12 09:28:19;;;;;;;4.70;2.63;;;14.80;60.70;;;;;;5018664;28;20410;-86
2022/03/12 09:30:51;;;;;;;4.70;2.63;;;14.10;59.70;;;;;;5033869;28;20940;-86
2022/03/12 09:33:20;;;;;;;3.33;2.72;;;14.00;60.20;;;;;;5034610;28;20203;-89
2022/03/12 09:35:54;;;;;;;10.77;3.42;;;14.10;60.00;;;;;;5035122;28;20198;-88
2022/03/12 09:38:29;;;;;;;4.22;2.30;;;13.70;60.70;;;;;;5035217;28;20539;-87
2022/03/12 09:41:23;;;;;;;6.25;2.60;;;13.90;61.20;;;;;;5025350;28;20170;-88
2022/03/12 09:43:51;;;;;;;9.55;2.75;;;13.80;61.80;;;;;;5019241;28;20249;-88
2022/03/12 09:46:24;;;;;;;5.13;2.20;;;13.80;60.90;;;;;;5032987;28;20214;-89
2022/03/12 09:48:52;;;;;;;6.50;2.85;;;13.70;61.00;;;;;;5033737;28;20179;-88
2022/03/12 09:51:18;;;;;;;3.83;2.28;;;13.80;61.30;;;;;;5019269;28;20182;-89
2022/03/12 09:53:50;;;;;;;9.52;3.00;;;13.60;60.80;;;;;;5020209;28;20233;-89
2022/03/12 09:56:16;;;;;;;6.65;2.75;;;13.80;61.50;;;;;;5025340;28;20209;-88
2022/03/12 09:58:42;;;;;;;6.03;2.67;;;14.00;61.00;;;;;;5030490;28;20206;-88
2022/03/12 10:01:10;;;;;;;8.67;3.70;;;14.00;60.10;;;;;;5032664;28;20190;-88
2022/03/12 10:03:37;;;;;;;8.43;2.83;;;14.00;60.20;;;;;;5034404;28;20525;-88
2022/03/12 10:06:03;;;;;;;4.55;2.40;;;14.30;60.10;;;;;;5048704;28;20187;-88
2022/03/12 10:08:29;;;;;;;6.15;2.33;;;14.50;59.60;;;;;;5048261;28;20194;-88
2022/03/12 10:10:55;;;;;;;6.47;2.77;;;14.30;58.50;;;;;;5042505;28;20174;-88
2022/03/12 10:13:21;;;;;;;7.00;2.30;;;14.30;58.80;;;;;;5033800;28;20530;-87
2022/03/12 10:15:46;;;;;;;6.23;3.27;;;14.50;59.70;;;;;;5033844;28;20202;-88
2022/03/12 10:18:15;;;;;;;2.60;2.00;;;14.70;59.70;;;;;;5032878;28;20441;-88
2022/03/12 10:20:41;;;;;;;4.68;2.33;;;14.90;59.30;;;;;;5033667;28;20446;-89
2022/03/12 10:23:07;;;;;;;9.03;3.93;;;15.20;58.30;;;;;;5030756;28;20253;-89
2022/03/12 10:25:34;;;;;;;4.30;2.63;;;14.80;56.30;;;;;;5013868;28;20205;-88
2022/03/12 10:28:00;;;;;;;4.00;2.33;;;15.00;56.90;;;;;;5015748;28;20183;-87
2022/03/12 10:30:26;;;;;;;6.10;3.17;;;14.50;56.70;;;;;;5018527;28;20172;-88
2022/03/12 10:32:52;;;;;;;2.70;2.07;;;14.30;57.10;;;;;;5020489;28;20246;-88
2022/03/12 10:35:20;;;;;;;4.15;2.60;;;14.20;57.80;;;;;;5000064;28;20442;-88
2022/03/12 10:37:49;;;;;;;4.38;2.33;;;13.90;57.40;;;;;;5021762;28;20182;-89
2022/03/12 10:40:18;;;;;;;2.95;2.30;;;14.10;58.00;;;;;;5017863;28;20764;-89
2022/03/12 10:43:01;;;;;;;4.60;2.33;;;14.20;56.60;;;;;;5018214;28;20646;-88
2022/03/12 10:45:29;;;;;;;4.38;2.60;;;14.50;56.70;;;;;;5016052;28;20624;-88
2022/03/12 10:47:58;;;;;;;2.10;1.70;;;14.70;56.20;;;;;;5017500;28;20179;-89
2022/03/12 10:50:29;;;;;;;4.55;1.92;;;14.40;55.40;;;;;;5027514;28;20178;-88
2022/03/12 10:52:58;;;;;;;4.07;1.70;;;14.50;56.30;;;;;;5022481;28;20171;-88
2022/03/12 10:55:29;;;;;;;4.00;2.30;;;14.30;55.50;;;;;;5022260;28;20211;-88
2022/03/12 10:57:57;;;;;;;4.53;2.30;;;14.10;55.90;;;;;;5032003;28;20237;-88
2022/03/12 11:00:44;;;;;;;4.20;2.55;;;14.20;55.90;;;;;;5008646;28;20281;-88
2022/03/12 11:03:14;;;;;;;4.93;1.83;;;14.40;55.60;;;;;;5024667;28;20201;-88
2022/03/12 11:05:43;;;;;;;4.78;2.38;;;14.50;55.10;;;;;;5027233;28;20213;-91
2022/03/12 11:08:23;;;;;;;3.30;1.70;;;14.90;55.10;;;;;;5056630;28;20186;-90
2022/03/12 11:10:57;;;;;;;5.38;2.08;;;15.30;56.10;;;;;;5028327;28;20178;-90
2022/03/12 11:13:42;;;;;;;6.20;2.13;;;15.60;54.20;;;;;;5025377;28;20181;-90
2022/03/12 11:16:37;;;;;;;6.35;2.28;;;15.90;53.40;;;;;;5019593;28;20205;-90
2022/03/12 11:19:11;;;;;;;6.20;3.22;;;16.10;51.90;;;;;;5023618;28;20224;-90
2022/03/12 11:21:52;;;;;;;3.70;2.17;;;16.10;50.90;;;;;;5016823;28;20225;-91
2022/03/12 11:24:23;;;;;;;4.32;2.47;;;16.30;52.20;;;;;;5031880;28;20198;-90
2022/03/12 11:27:01;;;;;;;5.15;2.08;;;16.40;52.30;;;;;;5032724;28;20258;-91
2022/03/12 11:29:29;;;;;;;12.35;2.95;;;16.40;51.40;;;;;;5023837;28;20844;-91
2022/03/12 11:32:05;;;;;;;4.78;2.45;;;16.50;50.30;;;;;;5021999;28;20265;-91
2022/03/12 11:34:39;;;;;;;7.20;2.70;;;16.60;50.70;;;;;;5025631;28;20285;-90
2022/03/12 11:37:17;;;;;;;2.78;2.40;;;16.60;50.60;;;;;;5038335;28;20183;-91
2022/03/12 11:40:11;;;;;;;4.13;2.53;;;16.30;49.80;;;;;;5015605;28;20202;-90
2022/03/12 11:42:39;;;;;;;5.70;2.25;;;15.70;50.60;;;;;;5033164;28;20520;-91
2022/03/12 11:45:20;;;;;;;3.95;2.10;;;16.00;51.50;;;;;;5034222;28;20629;-91
2022/03/12 11:47:46;;;;;;;2.92;2.00;;;15.70;50.70;;;;;;5031859;28;20185;-91
2022/03/12 11:50:15;;;;;;;6.13;2.40;;;15.60;51.40;;;;;;5021129;28;20186;-91
2022/03/12 11:52:45;;;;;;;3.03;1.77;;;15.80;52.10;;;;;;5020633;28;20219;-90
2022/03/12 11:55:30;;;;;;;4.72;1.90;;;16.10;52.10;;;;;;5032254;28;20214;-91
2022/03/12 11:57:59;;;;;;;2.30;2.10;;;16.30;52.40;;;;;;5027040;28;20193;-91
2022/03/12 12:00:28;;;;;;;2.42;2.00;;;16.40;50.90;;;;;;5033749;28;20726;-91
2022/03/12 12:02:55;;;;;;;4.35;2.78;;;16.40;50.30;;;;;;5027644;28;20264;-91
2022/03/12 12:05:22;;;;;;;4.22;2.05;;;16.50;51.50;;;;;;5035110;28;20445;-92
2022/03/12 12:07:51;;;;;;;7.78;2.70;;;16.40;50.10;;;;;;5021467;28;20181;-93
2022/03/12 12:10:31;;;;;;;3.67;1.90;;;16.30;49.80;;;;;;5033591;28;20264;-91
2022/03/12 12:12:58;;;;;;;5.60;2.90;;;16.20;49.20;;;;;;5037269;28;20768;-91
2022/03/12 12:15:34;;;;;;;7.10;2.10;;;16.20;51.00;;;;;;5023038;28;20198;-92
2022/03/12 12:18:02;;;;;;;4.40;2.30;;;16.50;51.30;;;;;;5032602;28;20212;-91
2022/03/12 12:20:29;;;;;;;2.88;2.17;;;16.70;49.70;;;;;;5047378;28;20221;-91
2022/03/12 12:22:59;;;;;;;3.28;1.95;;;16.70;49.80;;;;;;5022978;28;20213;-92
2022/03/12 12:25:26;;;;;;;3.97;1.90;;;16.90;49.90;;;;;;5031898;28;20578;-92
2022/03/12 12:27:54;;;;;;;3.15;1.75;;;16.90;49.30;;;;;;5018672;28;20182;-92
2022/03/12 12:30:42;;;;;;;4.57;1.85;;;17.10;50.00;;;;;;5032184;28;20174;-93
2022/03/12 12:33:27;;;;;;;2.78;1.70;;;16.70;47.30;;;;;;5031160;28;20209;-93
2022/03/12 12:36:17;;;;;;;5.47;2.30;;;16.90;48.10;;;;;;5032427;28;20202;-93
2022/03/12 12:39:09;;;;;;;4.18;2.88;;;17.00;47.30;;;;;;5015104;28;20210;-90
2022/03/12 12:42:01;;;;;;;4.90;1.95;;;16.60;47.10;;;;;;5023482;28;20186;-90
2022/03/12 12:44:40;;;;;;;5.88;1.73;;;16.40;46.40;;;;;;5015055;28;20305;-88
2022/03/12 12:47:10;;;;;;;5.93;2.05;;;16.10;46.30;;;;;;5014470;28;20163;-89
2022/03/12 12:49:45;;;;;;;10.43;2.10;;;16.00;47.30;;;;;;5013816;28;20179;-88
2022/03/12 12:52:11;;;;;;;9.48;1.92;;;15.50;47.30;;;;;;5014704;28;20194;-87
2022/03/12 12:54:46;;;;;;;3.50;1.93;;;16.00;49.40;;;;;;4997335;28;20260;-87